Time;durP1;ratioP1;P1;durP2;ratioP2;P2;SDS_P1;SDS_P2;PMS_P1;PMS_P2;Temp;Humidity;BMP_temperature;BMP_pressure;BME280_temperature;BME280_humidity;BME280_pressure;Samples;Min_cycle;Max_cycle;Signal;HPM_P1;HPM_P2
2022/08/27 00:01:40;;;;;;;6.43;3.17;;;23.40;90.10;;;;;;4884393;29;20055;-88
2022/08/27 00:04:07;;;;;;;7.03;3.10;;;23.40;88.80;;;;;;4874857;29;20068;-88
2022/08/27 00:06:35;;;;;;;7.20;3.05;;;23.40;88.90;;;;;;4863724;29;20518;-89
2022/08/27 00:09:04;;;;;;;7.03;2.75;;;23.30;89.10;;;;;;4863079;29;20048;-89
2022/08/27 00:11:33;;;;;;;13.48;3.78;;;23.40;88.60;;;;;;4866789;29;20048;-89
2022/08/27 00:14:02;;;;;;;8.88;3.33;;;23.30;88.00;;;;;;4868687;29;20080;-89
2022/08/27 00:16:31;;;;;;;8.50;3.67;;;23.30;89.00;;;;;;4868012;29;20081;-89
2022/08/27 00:18:58;;;;;;;8.30;3.25;;;23.30;88.60;;;;;;4881210;29;20040;-88
2022/08/27 00:21:26;;;;;;;6.90;2.70;;;23.30;90.00;;;;;;4867985;29;20040;-88
2022/08/27 00:23:54;;;;;;;5.97;2.90;;;23.20;89.10;;;;;;4867245;29;20041;-89
2022/08/27 00:26:22;;;;;;;11.05;3.35;;;23.20;90.10;;;;;;4884558;29;20096;-89
2022/08/27 00:28:50;;;;;;;8.05;3.38;;;23.20;90.50;;;;;;4862702;29;20068;-88
2022/08/27 00:31:18;;;;;;;8.95;3.22;;;23.10;89.80;;;;;;4866976;29;20051;-88
2022/08/27 00:33:53;;;;;;;5.85;2.85;;;23.10;90.40;;;;;;4868732;29;20045;-88
2022/08/27 00:36:21;;;;;;;7.40;2.85;;;23.10;90.90;;;;;;4867753;29;20055;-88
2022/08/27 00:38:48;;;;;;;7.68;2.80;;;23.10;90.00;;;;;;4862218;29;20076;-88
2022/08/27 00:41:20;;;;;;;7.45;3.00;;;23.10;89.30;;;;;;4879519;29;20554;-88
2022/08/27 00:43:50;;;;;;;8.18;2.90;;;23.10;90.40;;;;;;4865872;29;20051;-89
2022/08/27 00:46:38;;;;;;;7.13;3.00;;;23.10;90.40;;;;;;4868382;29;20127;-88
2022/08/27 00:49:11;;;;;;;8.38;2.80;;;23.10;91.00;;;;;;4884097;29;20053;-89
2022/08/27 00:51:39;;;;;;;6.35;2.80;;;23.10;90.20;;;;;;4866176;29;20064;-88
2022/08/27 00:54:08;;;;;;;9.25;3.38;;;23.00;89.80;;;;;;4866212;29;20044;-89
2022/08/27 00:56:44;;;;;;;7.03;2.78;;;23.00;90.70;;;;;;4863903;29;20076;-89
2022/08/27 00:59:20;;;;;;;10.63;3.95;;;23.00;90.60;;;;;;4879374;29;20139;-88
2022/08/27 01:04:36;;;;;;;7.25;2.92;;;22.90;91.10;;;;;;4879251;29;20418;-88
2022/08/27 01:07:04;;;;;;;7.10;3.30;;;22.90;90.90;;;;;;4864767;29;20141;-88
2022/08/27 01:09:33;;;;;;;9.07;3.10;;;22.80;91.50;;;;;;4867943;29;20152;-88
2022/08/27 01:12:01;;;;;;;8.32;3.20;;;22.80;90.90;;;;;;4868073;29;20401;-88
2022/08/27 01:14:28;;;;;;;8.95;3.50;;;22.80;90.60;;;;;;4857920;29;20076;-88
2022/08/27 01:16:59;;;;;;;12.32;3.40;;;22.80;90.90;;;;;;4858672;29;20045;-88
2022/08/27 01:19:39;;;;;;;8.82;2.95;;;22.80;91.00;;;;;;4884908;29;20045;-89
2022/08/27 01:22:24;;;;;;;7.40;3.28;;;22.80;90.30;;;;;;4882065;29;20136;-88
2022/08/27 01:24:57;;;;;;;5.97;2.95;;;22.80;90.60;;;;;;4866710;29;20051;-88
2022/08/27 01:27:26;;;;;;;7.90;3.40;;;22.80;89.90;;;;;;4867229;29;20085;-88
2022/08/27 01:29:54;;;;;;;11.40;3.42;;;22.70;89.80;;;;;;4865584;29;20051;-89
2022/08/27 01:32:25;;;;;;;5.55;2.60;;;22.70;90.10;;;;;;4861640;29;20101;-88
2022/08/27 01:34:53;;;;;;;9.18;3.25;;;22.70;89.60;;;;;;4859847;29;20502;-88
2022/08/27 01:37:21;;;;;;;6.88;3.15;;;22.70;89.00;;;;;;4879892;29;20037;-89
2022/08/27 01:39:52;;;;;;;7.82;3.25;;;22.60;90.20;;;;;;4878254;29;20052;-89
2022/08/27 01:42:29;;;;;;;8.55;3.30;;;22.60;89.50;;;;;;4867293;29;20060;-88
2022/08/27 01:45:00;;;;;;;5.72;3.33;;;22.50;89.00;;;;;;4865894;29;20534;-88
2022/08/27 01:47:33;;;;;;;9.20;3.20;;;22.60;90.40;;;;;;4884888;29;20071;-88
2022/08/27 01:50:02;;;;;;;6.55;3.22;;;22.50;89.40;;;;;;4881814;29;20047;-88
2022/08/27 01:52:30;;;;;;;8.45;3.33;;;22.60;90.30;;;;;;4868031;29;20056;-87
2022/08/27 01:54:57;;;;;;;6.95;3.17;;;22.60;89.00;;;;;;4866051;29;20077;-89
2022/08/27 01:57:25;;;;;;;5.57;2.97;;;22.50;88.70;;;;;;4880886;29;20045;-89
2022/08/27 01:59:55;;;;;;;5.82;2.78;;;22.50;88.10;;;;;;4860199;29;20443;-88
2022/08/27 02:02:23;;;;;;;7.82;2.75;;;22.40;88.00;;;;;;4855613;29;20101;-88
2022/08/27 02:04:51;;;;;;;8.40;3.30;;;22.50;88.30;;;;;;4878951;29;20056;-89
2022/08/27 02:07:18;;;;;;;11.10;3.60;;;22.50;87.60;;;;;;4864112;29;20044;-89
2022/08/27 02:09:46;;;;;;;7.60;2.97;;;22.50;87.70;;;;;;4866337;29;20096;-89
2022/08/27 02:12:13;;;;;;;7.78;3.58;;;22.50;89.90;;;;;;4861583;29;20044;-88
2022/08/27 02:14:41;;;;;;;7.30;3.55;;;22.50;90.40;;;;;;4864437;29;20482;-89
2022/08/27 02:17:11;;;;;;;8.90;3.40;;;22.50;90.10;;;;;;4872305;29;20049;-88
2022/08/27 02:19:38;;;;;;;8.38;3.38;;;22.50;90.80;;;;;;4863051;29;20569;-89
2022/08/27 02:22:06;;;;;;;5.35;2.70;;;22.40;90.90;;;;;;4865693;29;20052;-88
2022/08/27 02:24:33;;;;;;;8.55;3.35;;;22.40;90.00;;;;;;4866010;29;20053;-89
2022/08/27 02:27:01;;;;;;;6.68;2.88;;;22.40;88.60;;;;;;4865934;29;20541;-89
2022/08/27 02:29:28;;;;;;;8.18;3.28;;;22.40;88.10;;;;;;4863000;29;20041;-88
2022/08/27 02:31:56;;;;;;;7.25;2.95;;;22.40;87.80;;;;;;4865673;29;20079;-89
2022/08/27 02:34:24;;;;;;;4.68;2.33;;;22.40;87.50;;;;;;4865094;29;20048;-88
2022/08/27 02:36:52;;;;;;;8.82;2.72;;;22.30;87.10;;;;;;4866275;29;20105;-88
2022/08/27 02:39:20;;;;;;;7.13;2.85;;;22.40;87.90;;;;;;4860048;29;20044;-88
2022/08/27 02:41:48;;;;;;;7.80;2.80;;;22.40;87.50;;;;;;4865514;29;20055;-89
2022/08/27 02:44:15;;;;;;;6.38;2.33;;;22.40;86.90;;;;;;4865534;29;20057;-88
2022/08/27 02:46:43;;;;;;;10.27;3.58;;;22.40;87.00;;;;;;4862221;29;20045;-89
2022/08/27 02:49:10;;;;;;;8.63;2.53;;;22.40;88.50;;;;;;4863775;29;20061;-88
2022/08/27 02:51:38;;;;;;;9.90;3.10;;;22.30;87.00;;;;;;4865173;29;20051;-89
2022/08/27 02:54:06;;;;;;;5.97;2.63;;;22.30;87.60;;;;;;4861903;29;20063;-89
2022/08/27 02:56:36;;;;;;;9.45;3.42;;;22.30;89.30;;;;;;4864605;29;20045;-89
2022/08/27 02:59:04;;;;;;;8.82;3.20;;;22.30;89.80;;;;;;4865416;29;20049;-89
2022/08/27 03:01:32;;;;;;;5.60;2.72;;;22.20;90.60;;;;;;4865745;29;20049;-89
2022/08/27 03:03:59;;;;;;;11.50;2.95;;;22.20;90.60;;;;;;4866376;29;20072;-89
2022/08/27 03:06:27;;;;;;;7.10;2.85;;;22.20;90.70;;;;;;4862357;29;20044;-89
2022/08/27 03:08:55;;;;;;;6.60;2.90;;;22.10;91.10;;;;;;4866951;29;20053;-89
2022/08/27 03:11:22;;;;;;;9.02;3.28;;;22.10;91.50;;;;;;4863091;29;20540;-89
2022/08/27 03:13:51;;;;;;;6.55;2.75;;;22.10;91.60;;;;;;4863534;29;20410;-89
2022/08/27 03:16:18;;;;;;;6.47;2.92;;;22.00;92.40;;;;;;4864572;29;20048;-89
2022/08/27 03:18:46;;;;;;;7.68;3.20;;;21.90;91.60;;;;;;4864931;29;20462;-89
2022/08/27 03:21:19;;;;;;;5.38;3.33;;;21.90;92.60;;;;;;4861586;29;20045;-89
2022/08/27 03:23:47;;;;;;;7.95;2.90;;;21.90;92.30;;;;;;4865017;29;20136;-89
2022/08/27 03:26:15;;;;;;;9.40;2.95;;;21.90;93.10;;;;;;4876943;29;20109;-90
2022/08/27 03:28:43;;;;;;;4.97;2.92;;;21.90;93.10;;;;;;4861306;29;20055;-90
2022/08/27 03:31:21;;;;;;;6.00;2.97;;;21.90;93.30;;;;;;4864844;29;20045;-90
2022/08/27 03:33:48;;;;;;;5.18;2.80;;;21.80;93.10;;;;;;4860603;29;20160;-89
2022/08/27 03:36:16;;;;;;;8.20;3.10;;;21.80;93.20;;;;;;4865425;29;20379;-89
2022/08/27 03:38:43;;;;;;;9.18;3.08;;;21.80;93.90;;;;;;4857328;29;20053;-89
2022/08/27 03:41:12;;;;;;;7.50;2.92;;;21.80;94.10;;;;;;4876649;29;20044;-90
2022/08/27 03:43:39;;;;;;;6.93;3.72;;;21.80;93.90;;;;;;4879710;29;20052;-88
2022/08/27 03:46:08;;;;;;;7.63;3.28;;;21.80;94.20;;;;;;4862796;29;20041;-90
2022/08/27 03:48:36;;;;;;;6.53;3.60;;;21.80;94.00;;;;;;4865129;29;20044;-89
2022/08/27 03:51:06;;;;;;;8.93;3.38;;;21.80;94.30;;;;;;4879300;29;20041;-89
2022/08/27 03:53:35;;;;;;;8.32;3.78;;;21.80;94.90;;;;;;4865245;29;20152;-89
2022/08/27 03:56:05;;;;;;;6.35;3.35;;;21.70;95.00;;;;;;4857785;29;20045;-89
2022/08/27 03:58:34;;;;;;;9.80;4.10;;;21.70;95.20;;;;;;4862512;29;20049;-89
2022/08/27 04:01:03;;;;;;;8.57;3.50;;;21.70;94.80;;;;;;4858003;29;20033;-90
2022/08/27 04:03:32;;;;;;;13.02;3.80;;;21.60;94.60;;;;;;4861761;29;20048;-90
2022/08/27 04:05:59;;;;;;;8.05;3.58;;;21.60;94.70;;;;;;4863824;29;20051;-90
2022/08/27 04:08:27;;;;;;;10.38;4.22;;;21.60;95.00;;;;;;4862451;29;20067;-90
2022/08/27 04:10:55;;;;;;;8.10;3.17;;;21.60;94.70;;;;;;4865207;29;20144;-89
2022/08/27 04:13:23;;;;;;;9.80;3.90;;;21.60;94.90;;;;;;4865177;29;20053;-89
2022/08/27 04:15:53;;;;;;;6.05;3.65;;;21.60;95.50;;;;;;4878487;29;20045;-89
2022/08/27 04:18:21;;;;;;;6.90;3.35;;;21.60;95.80;;;;;;4878377;29;20055;-89
2022/08/27 04:20:51;;;;;;;7.18;3.80;;;21.60;95.30;;;;;;4862837;29;20041;-90
2022/08/27 04:23:19;;;;;;;7.65;3.35;;;21.60;95.00;;;;;;4865958;29;20476;-89
2022/08/27 04:25:47;;;;;;;9.63;3.72;;;21.60;95.10;;;;;;4864559;29;20110;-89
2022/08/27 04:28:15;;;;;;;17.77;3.92;;;21.60;95.10;;;;;;4873800;29;20052;-89
2022/08/27 04:30:45;;;;;;;6.63;3.58;;;21.60;95.70;;;;;;4879094;29;20045;-89
2022/08/27 04:33:13;;;;;;;7.03;3.35;;;21.60;95.60;;;;;;4878258;29;20055;-89
2022/08/27 04:35:41;;;;;;;6.38;3.40;;;21.60;95.40;;;;;;4862835;29;20520;-89
2022/08/27 04:38:08;;;;;;;7.40;3.30;;;21.60;95.90;;;;;;4878391;29;20052;-89
2022/08/27 04:43:23;;;;;;;7.43;3.75;;;21.70;96.00;;;;;;4882012;29;20041;-89
2022/08/27 04:45:50;;;;;;;8.40;3.88;;;21.70;95.90;;;;;;4862892;29;20053;-89
2022/08/27 04:48:18;;;;;;;6.97;3.95;;;21.70;96.20;;;;;;4867460;29;20059;-89
2022/08/27 04:50:46;;;;;;;8.25;3.70;;;21.70;96.40;;;;;;4878699;29;20409;-89
2022/08/27 04:53:16;;;;;;;7.78;3.78;;;21.70;96.10;;;;;;4867232;29;20052;-89
2022/08/27 04:55:46;;;;;;;9.10;3.88;;;21.70;95.90;;;;;;4872681;29;20236;-89
2022/08/27 04:58:14;;;;;;;8.68;4.03;;;21.80;96.20;;;;;;4867534;29;20099;-88
2022/08/27 05:00:54;;;;;;;12.10;4.38;;;21.70;96.30;;;;;;4869037;29;20040;-89
2022/08/27 05:03:23;;;;;;;12.13;4.05;;;21.80;96.20;;;;;;4864894;29;20462;-88
2022/08/27 05:05:51;;;;;;;10.43;3.85;;;21.90;96.70;;;;;;4867453;29;20044;-89
2022/08/27 05:08:19;;;;;;;10.23;3.60;;;21.90;97.10;;;;;;4867066;29;20045;-88
2022/08/27 05:10:49;;;;;;;8.07;4.07;;;21.90;96.00;;;;;;4866678;29;20055;-89
2022/08/27 05:13:19;;;;;;;11.30;4.63;;;22.00;96.10;;;;;;4860049;29;20864;-89
2022/08/27 05:15:47;;;;;;;7.97;3.70;;;22.00;95.70;;;;;;4866090;29;20041;-89
2022/08/27 05:18:16;;;;;;;10.43;4.63;;;22.10;95.50;;;;;;4864449;29;20044;-88
2022/08/27 05:20:46;;;;;;;9.93;3.67;;;22.10;95.50;;;;;;4866852;29;20140;-88
2022/08/27 05:23:16;;;;;;;7.75;3.72;;;22.20;96.20;;;;;;4864856;29;20490;-88
2022/08/27 05:25:45;;;;;;;7.93;4.28;;;22.20;95.30;;;;;;4864535;29;20148;-88
2022/08/27 05:28:14;;;;;;;8.65;3.75;;;22.20;94.70;;;;;;4860663;29;20068;-87
2022/08/27 05:30:45;;;;;;;10.65;3.72;;;22.30;94.60;;;;;;4857918;29;20577;-87
2022/08/27 05:33:24;;;;;;;9.38;3.75;;;22.10;94.10;;;;;;4857095;29;20049;-88
2022/08/27 05:35:57;;;;;;;12.25;4.60;;;22.10;94.10;;;;;;4859959;29;20100;-88
2022/08/27 05:38:29;;;;;;;9.20;3.78;;;22.20;94.20;;;;;;4856349;29;20037;-88
2022/08/27 05:41:09;;;;;;;8.60;3.13;;;22.30;93.90;;;;;;4867457;29;20049;-88
2022/08/27 05:43:40;;;;;;;6.75;3.30;;;22.40;93.70;;;;;;4866142;29;20692;-87
2022/08/27 05:46:11;;;;;;;6.47;3.10;;;22.50;92.30;;;;;;4861643;29;20052;-86
2022/08/27 05:48:40;;;;;;;8.35;3.60;;;22.50;91.90;;;;;;4864188;29;20044;-86
2022/08/27 05:51:14;;;;;;;8.50;3.10;;;22.60;91.90;;;;;;4865973;29;20053;-88
2022/08/27 05:54:04;;;;;;;9.15;3.38;;;22.60;91.10;;;;;;4876362;29;20049;-88
2022/08/27 05:56:37;;;;;;;6.10;2.88;;;22.70;90.60;;;;;;4868225;29;20068;-87
2022/08/27 06:01:53;;;;;;;9.18;2.88;;;23.00;88.90;;;;;;4862455;29;20102;-87
2022/08/27 06:04:22;;;;;;;7.53;2.90;;;23.10;85.40;;;;;;4854403;29;20693;-88
2022/08/27 06:06:51;;;;;;;5.53;2.17;;;23.20;84.00;;;;;;4861037;29;20047;-88
2022/08/27 06:09:22;;;;;;;7.43;2.83;;;23.30;83.10;;;;;;4860213;29;20139;-92
2022/08/27 06:11:51;;;;;;;6.72;3.08;;;23.40;81.20;;;;;;4875553;29;20068;-86
2022/08/27 06:14:19;;;;;;;4.57;2.20;;;23.60;81.00;;;;;;4875544;29;20076;-88
2022/08/27 06:16:47;;;;;;;4.75;2.13;;;23.70;80.50;;;;;;4874518;29;20048;-88
2022/08/27 06:19:15;;;;;;;4.75;2.25;;;23.90;78.50;;;;;;4861674;29;20052;-90
2022/08/27 06:21:43;;;;;;;5.65;2.30;;;24.00;76.40;;;;;;4857553;29;20051;-87
2022/08/27 06:24:11;;;;;;;4.55;2.10;;;24.10;76.60;;;;;;4860925;29;20130;-86
2022/08/27 06:26:41;;;;;;;5.95;2.30;;;24.20;74.90;;;;;;4861886;29;20077;-92
2022/08/27 06:29:09;;;;;;;5.70;2.22;;;24.30;74.00;;;;;;4874552;29;20104;-88
2022/08/27 06:31:38;;;;;;;5.97;2.22;;;24.50;73.90;;;;;;4878553;29;20048;-87
2022/08/27 06:34:08;;;;;;;5.85;2.25;;;24.60;72.50;;;;;;4860730;29;20120;-87
2022/08/27 06:36:39;;;;;;;5.75;2.00;;;24.60;71.20;;;;;;4861110;29;20057;-86
2022/08/27 06:39:07;;;;;;;3.17;1.73;;;24.60;72.10;;;;;;4862776;29;20141;-86
2022/08/27 06:41:35;;;;;;;4.03;2.20;;;24.60;71.50;;;;;;4854550;29;20048;-89
2022/08/27 06:44:11;;;;;;;6.10;2.55;;;24.60;71.90;;;;;;4873217;29;20132;-87
2022/08/27 06:46:39;;;;;;;6.88;2.58;;;24.70;71.10;;;;;;4857748;29;20096;-90
2022/08/27 06:49:07;;;;;;;6.95;2.33;;;24.90;69.90;;;;;;4871541;29;20055;-88
2022/08/27 06:51:37;;;;;;;4.78;2.22;;;25.00;69.10;;;;;;4865562;29;20044;-86
2022/08/27 06:54:10;;;;;;;8.90;2.50;;;25.00;69.80;;;;;;4844123;29;20056;-87
2022/08/27 06:56:39;;;;;;;3.58;1.88;;;24.90;69.70;;;;;;4855604;29;20059;-86
2022/08/27 06:59:10;;;;;;;5.93;2.28;;;25.00;69.90;;;;;;4857024;29;20048;-89
2022/08/27 07:01:40;;;;;;;5.53;1.80;;;25.10;68.20;;;;;;4870152;29;20080;-86
2022/08/27 07:04:11;;;;;;;5.65;2.03;;;25.10;68.90;;;;;;4854781;29;20302;-87
2022/08/27 07:06:39;;;;;;;5.72;2.28;;;25.10;70.00;;;;;;4858676;29;20613;-86
2022/08/27 07:09:08;;;;;;;3.00;1.58;;;25.20;69.90;;;;;;4867813;29;20044;-87
2022/08/27 07:11:37;;;;;;;5.97;2.20;;;25.40;69.20;;;;;;4857135;29;20417;-86
2022/08/27 07:14:06;;;;;;;6.65;2.45;;;25.60;69.60;;;;;;4856481;29;20052;-85
2022/08/27 07:16:33;;;;;;;5.20;1.90;;;25.80;67.90;;;;;;4859801;29;20045;-86
2022/08/27 07:19:03;;;;;;;6.65;2.17;;;25.90;68.10;;;;;;4856738;29;20044;-89
2022/08/27 07:21:34;;;;;;;5.15;2.38;;;26.10;66.90;;;;;;4852180;29;20059;-91
2022/08/27 07:24:04;;;;;;;10.18;2.63;;;26.20;66.80;;;;;;4850955;29;20057;-84
2022/08/27 07:26:34;;;;;;;5.65;2.13;;;26.20;65.90;;;;;;4855648;29;20047;-86
2022/08/27 07:29:06;;;;;;;4.75;2.17;;;26.10;66.20;;;;;;4868403;29;20045;-83
2022/08/27 07:31:34;;;;;;;5.03;2.10;;;26.10;66.40;;;;;;4856805;29;20054;-85
2022/08/27 07:34:06;;;;;;;4.15;2.00;;;26.00;66.50;;;;;;4855871;29;20222;-84
2022/08/27 07:36:34;;;;;;;5.43;2.67;;;26.00;66.10;;;;;;4852978;29;20053;-85
2022/08/27 07:39:02;;;;;;;3.90;2.03;;;26.30;64.90;;;;;;4856389;29;20085;-85
2022/08/27 07:41:29;;;;;;;5.57;2.30;;;26.60;64.40;;;;;;4857714;29;20120;-84
2022/08/27 07:46:55;;;;;;;4.97;2.10;;;26.90;62.50;;;;;;4872373;29;20057;-84
2022/08/27 07:49:22;;;;;;;9.25;2.35;;;27.00;63.50;;;;;;4855137;29;20061;-88
2022/08/27 07:51:51;;;;;;;9.05;2.40;;;27.10;62.60;;;;;;4884892;29;20044;-87
2022/08/27 07:54:21;;;;;;;5.35;2.05;;;27.10;61.60;;;;;;4871181;29;20045;-84
2022/08/27 07:56:49;;;;;;;3.53;1.80;;;27.10;61.80;;;;;;4856728;29;20173;-83
2022/08/27 07:59:26;;;;;;;4.63;2.42;;;27.30;63.00;;;;;;4858770;29;20403;-84
2022/08/27 08:01:54;;;;;;;4.15;2.22;;;27.40;60.40;;;;;;4852588;29;20157;-84
2022/08/27 08:04:23;;;;;;;5.57;2.20;;;27.50;60.90;;;;;;4858771;29;20088;-85
2022/08/27 08:06:51;;;;;;;4.30;2.10;;;27.50;60.70;;;;;;4858399;29;21751;-85
2022/08/27 08:09:20;;;;;;;5.97;2.67;;;27.60;61.70;;;;;;4857214;29;20697;-86
2022/08/27 08:11:49;;;;;;;10.73;3.08;;;27.60;58.80;;;;;;4876028;29;20053;-86
2022/08/27 08:14:18;;;;;;;7.95;2.38;;;27.50;59.00;;;;;;4864830;29;20072;-85
2022/08/27 08:16:46;;;;;;;6.57;2.78;;;27.50;60.00;;;;;;4879456;29;20057;-84
2022/08/27 08:19:14;;;;;;;4.70;2.20;;;27.60;59.50;;;;;;4881957;29;20048;-86
2022/08/27 08:21:42;;;;;;;7.10;2.60;;;27.70;59.50;;;;;;4860349;29;20053;-84
2022/08/27 08:24:09;;;;;;;7.30;2.60;;;27.80;60.70;;;;;;4867528;29;20047;-85
2022/08/27 08:26:37;;;;;;;4.80;2.45;;;27.90;59.80;;;;;;4867195;29;20086;-85
2022/08/27 08:29:04;;;;;;;4.18;2.30;;;28.00;60.50;;;;;;4857463;29;20069;-86
2022/08/27 08:31:32;;;;;;;5.82;2.40;;;28.00;59.30;;;;;;4880699;29;20057;-86
2022/08/27 08:33:59;;;;;;;6.78;2.10;;;28.10;57.40;;;;;;4864219;29;20085;-86
2022/08/27 08:36:27;;;;;;;5.18;2.10;;;28.10;57.50;;;;;;4865408;29;20049;-83
2022/08/27 08:38:54;;;;;;;6.35;1.90;;;28.20;58.80;;;;;;4867399;29;20071;-87
2022/08/27 08:41:24;;;;;;;5.78;2.03;;;28.30;56.60;;;;;;4878874;29;20147;-85
2022/08/27 08:43:54;;;;;;;4.60;1.98;;;28.10;56.00;;;;;;4881519;29;20053;-85
2022/08/27 08:46:36;;;;;;;4.28;1.83;;;28.20;58.50;;;;;;4878004;29;20084;-86
2022/08/27 08:49:41;;;;;;;5.75;2.10;;;28.30;58.60;;;;;;4879385;29;20048;-85
2022/08/27 08:52:33;;;;;;;7.70;2.00;;;28.30;58.90;;;;;;4847260;29;20131;-84
2022/08/27 08:55:26;;;;;;;8.05;2.10;;;28.50;59.80;;;;;;4863122;29;20068;-86
2022/08/27 08:58:26;;;;;;;3.97;2.15;;;28.50;57.20;;;;;;4881985;29;20131;-87
2022/08/27 09:01:02;;;;;;;7.75;2.47;;;28.60;56.00;;;;;;4860161;29;20100;-86
2022/08/27 09:03:34;;;;;;;14.05;2.60;;;28.60;55.30;;;;;;4862246;29;20139;-86
2022/08/27 09:06:06;;;;;;;5.60;1.88;;;28.60;57.20;;;;;;4875984;29;20055;-86
2022/08/27 09:08:35;;;;;;;4.60;2.13;;;28.70;58.80;;;;;;4859546;29;20136;-86
2022/08/27 09:11:38;;;;;;;5.45;2.45;;;28.70;56.60;;;;;;4863894;29;20139;-87
2022/08/27 09:14:32;;;;;;;6.85;2.90;;;28.70;55.80;;;;;;4856738;29;20071;-85
2022/08/27 09:17:01;;;;;;;6.47;2.33;;;28.80;56.50;;;;;;4863971;29;20064;-84
2022/08/27 09:19:38;;;;;;;6.00;2.28;;;28.80;55.90;;;;;;4864231;29;20053;-85
2022/08/27 09:22:23;;;;;;;4.05;2.30;;;28.80;54.60;;;;;;4861495;29;20072;-85
2022/08/27 09:25:05;;;;;;;5.90;2.42;;;28.80;56.40;;;;;;4864403;29;20045;-85
2022/08/27 09:27:37;;;;;;;7.47;2.20;;;28.80;56.10;;;;;;4857841;29;20135;-84
2022/08/27 09:30:11;;;;;;;7.10;2.03;;;28.90;58.20;;;;;;4861256;29;20052;-84
2022/08/27 09:32:39;;;;;;;4.78;2.05;;;29.00;58.30;;;;;;4862646;29;20372;-85
2022/08/27 09:35:10;;;;;;;8.00;2.45;;;29.00;54.90;;;;;;4881278;29;20487;-85
2022/08/27 09:37:43;;;;;;;5.40;2.15;;;29.10;55.50;;;;;;4861120;29;20077;-84
2022/08/27 09:40:11;;;;;;;5.68;2.22;;;29.20;55.20;;;;;;4864753;29;20108;-85
2022/08/27 09:42:52;;;;;;;6.18;2.40;;;29.10;56.60;;;;;;4865666;29;20068;-86
2022/08/27 09:45:25;;;;;;;4.30;2.38;;;29.20;56.20;;;;;;4874708;29;20200;-85
2022/08/27 09:48:09;;;;;;;3.63;1.85;;;29.20;56.80;;;;;;4861230;29;20040;-86
2022/08/27 09:50:50;;;;;;;5.22;1.77;;;29.30;54.40;;;;;;4857467;29;20072;-84
2022/08/27 09:53:29;;;;;;;6.47;2.78;;;29.40;56.50;;;;;;4876600;29;20037;-85
2022/08/27 09:56:00;;;;;;;6.40;1.98;;;29.40;56.90;;;;;;4875360;29;20049;-86
2022/08/27 09:58:32;;;;;;;5.47;1.80;;;29.40;55.60;;;;;;4858392;29;20068;-86
2022/08/27 10:01:14;;;;;;;3.55;2.03;;;29.40;56.70;;;;;;4874426;29;20132;-87
2022/08/27 10:03:42;;;;;;;6.93;1.73;;;29.40;57.20;;;;;;4863969;29;20048;-86
2022/08/27 10:06:10;;;;;;;7.28;2.05;;;29.40;55.20;;;;;;4873276;29;20071;-86
2022/08/27 10:08:47;;;;;;;8.82;2.85;;;29.60;57.10;;;;;;4861849;29;20049;-85
2022/08/27 10:11:18;;;;;;;5.07;2.20;;;29.60;55.00;;;;;;4864081;29;20049;-85
2022/08/27 10:14:13;;;;;;;11.57;2.53;;;29.70;56.70;;;;;;4876422;29;20133;-88
2022/08/27 10:17:03;;;;;;;4.72;2.10;;;29.80;56.00;;;;;;4860279;29;20049;-86
2022/08/27 10:19:37;;;;;;;5.95;1.70;;;29.90;53.70;;;;;;4860419;29;20502;-85
2022/08/27 10:22:19;;;;;;;6.63;2.08;;;29.80;54.50;;;;;;4855149;29;20086;-85
2022/08/27 10:25:26;;;;;;;6.38;1.67;;;29.80;54.80;;;;;;4876893;29;20060;-85
2022/08/27 10:27:56;;;;;;;8.35;2.35;;;29.80;55.20;;;;;;4866409;29;20503;-85
2022/08/27 10:30:59;;;;;;;6.53;1.85;;;29.90;55.80;;;;;;4858521;29;20079;-85
2022/08/27 10:33:36;;;;;;;4.93;1.92;;;30.00;53.10;;;;;;4862616;29;20041;-85
2022/08/27 10:36:46;;;;;;;5.65;2.42;;;29.90;51.80;;;;;;4860628;29;20157;-85
2022/08/27 10:39:35;;;;;;;9.20;1.95;;;29.90;51.80;;;;;;4861589;29;20052;-85
2022/08/27 10:42:21;;;;;;;8.65;1.85;;;30.00;51.90;;;;;;4859797;29;20158;-84
2022/08/27 10:45:20;;;;;;;4.03;1.83;;;30.00;53.00;;;;;;4868741;29;20618;-85
2022/08/27 10:48:30;;;;;;;8.30;2.47;;;29.90;54.70;;;;;;4872316;29;20051;-86
2022/08/27 10:51:08;;;;;;;5.63;1.70;;;29.90;53.40;;;;;;4871531;29;20064;-87
2022/08/27 10:54:12;;;;;;;3.88;1.70;;;29.80;52.20;;;;;;4858897;29;20048;-85
2022/08/27 10:57:06;;;;;;;6.68;1.75;;;29.90;55.10;;;;;;4861131;29;20059;-86
2022/08/27 11:00:00;;;;;;;2.55;1.48;;;30.00;51.60;;;;;;4879003;29;20044;-85
2022/08/27 11:02:38;;;;;;;4.20;1.50;;;30.00;50.20;;;;;;4861209;29;20044;-85
2022/08/27 11:05:30;;;;;;;9.05;1.80;;;30.10;51.50;;;;;;4862975;29;20057;-87
2022/08/27 11:08:18;;;;;;;3.78;1.58;;;30.20;51.00;;;;;;4861959;29;20072;-86
2022/08/27 11:10:53;;;;;;;6.65;2.08;;;30.10;53.30;;;;;;4877782;29;20071;-87
2022/08/27 11:13:27;;;;;;;6.13;1.67;;;30.20;52.10;;;;;;4861349;29;20049;-86
2022/08/27 11:15:55;;;;;;;4.78;1.80;;;30.20;51.80;;;;;;4877459;29;20528;-83
2022/08/27 11:18:38;;;;;;;7.13;1.50;;;30.30;52.30;;;;;;4859395;29;20049;-87
2022/08/27 11:21:24;;;;;;;4.93;1.70;;;30.20;52.10;;;;;;4861002;29;20084;-89
2022/08/27 11:24:04;;;;;;;7.95;3.15;;;30.30;49.20;;;;;;4859802;29;20074;-85
2022/08/27 11:26:35;;;;;;;9.55;1.90;;;30.20;50.20;;;;;;4879287;29;20056;-85
2022/08/27 11:29:23;;;;;;;4.53;1.83;;;30.30;50.50;;;;;;4856246;29;20496;-85
2022/08/27 11:32:03;;;;;;;4.70;1.50;;;30.30;52.40;;;;;;4878972;29;20055;-85
2022/08/27 11:34:46;;;;;;;5.13;1.55;;;30.20;51.60;;;;;;4865042;29;20076;-85
2022/08/27 11:37:23;;;;;;;6.07;2.20;;;30.30;52.20;;;;;;4877483;29;20040;-87
2022/08/27 11:40:01;;;;;;;9.90;1.85;;;30.40;51.80;;;;;;4865171;29;20049;-86
2022/08/27 11:42:44;;;;;;;5.65;1.80;;;30.40;51.50;;;;;;4863739;29;20478;-86
2022/08/27 11:45:23;;;;;;;6.90;1.80;;;30.40;53.30;;;;;;4862279;29;20061;-85
2022/08/27 11:48:01;;;;;;;8.52;2.80;;;30.50;52.40;;;;;;4860360;29;20056;-86
2022/08/27 11:50:30;;;;;;;6.85;1.80;;;30.50;50.30;;;;;;4864176;29;20514;-86
2022/08/27 11:53:01;;;;;;;6.15;1.60;;;30.50;50.10;;;;;;4867636;29;20049;-86
2022/08/27 11:55:35;;;;;;;6.55;1.40;;;30.50;51.10;;;;;;4868977;29;20055;-87
2022/08/27 11:58:22;;;;;;;4.07;1.30;;;30.40;50.70;;;;;;4866211;29;20048;-85
2022/08/27 12:00:52;;;;;;;3.42;1.85;;;30.40;50.30;;;;;;4881868;29;20049;-85
2022/08/27 12:03:33;;;;;;;2.97;1.15;;;30.50;53.30;;;;;;4865867;29;20045;-85
2022/08/27 12:06:08;;;;;;;4.00;1.77;;;30.60;51.50;;;;;;4879278;29;20045;-87
2022/08/27 12:08:35;;;;;;;5.88;1.63;;;30.60;51.20;;;;;;4858846;29;20055;-86
2022/08/27 12:11:21;;;;;;;7.57;2.15;;;30.60;51.90;;;;;;4862472;29;20048;-86
2022/08/27 12:14:11;;;;;;;8.18;1.63;;;30.60;51.00;;;;;;4876605;29;20474;-85
2022/08/27 12:17:04;;;;;;;5.60;1.63;;;30.60;50.30;;;;;;4880485;29;20049;-86
2022/08/27 12:19:58;;;;;;;5.57;1.73;;;30.60;51.50;;;;;;4876230;29;20049;-86
2022/08/27 12:25:31;;;;;;;5.63;1.55;;;30.60;51.20;;;;;;4881036;29;20044;-85
2022/08/27 12:28:03;;;;;;;8.48;1.80;;;30.70;50.00;;;;;;4865900;29;20041;-86
2022/08/27 12:30:40;;;;;;;6.40;1.60;;;30.70;51.80;;;;;;4880647;29;20081;-86
2022/08/27 12:33:22;;;;;;;8.63;3.40;;;30.80;51.60;;;;;;4864728;29;20053;-85
2022/08/27 12:35:51;;;;;;;;;;;30.90;49.50;;;;;;4884398;29;20135;-86
2022/08/27 12:38:36;;;;;;;9.85;1.95;;;30.90;49.00;;;;;;4882648;29;19931;-85
2022/08/27 12:41:08;;;;;;;6.22;1.95;;;30.90;49.10;;;;;;4882054;29;20667;-86
2022/08/27 12:43:37;;;;;;;;;;;30.80;49.00;;;;;;4867787;29;20139;-87
2022/08/27 12:46:16;;;;;;;6.32;1.80;;;30.70;48.80;;;;;;4882557;29;20034;-84
2022/08/27 12:48:53;;;;;;;4.13;1.58;;;30.70;49.90;;;;;;4882447;29;20096;-84
2022/08/27 12:51:32;;;;;;;4.93;1.42;;;30.70;49.40;;;;;;4866962;29;20051;-85
2022/08/27 12:54:12;;;;;;;9.80;1.63;;;30.70;50.20;;;;;;4864907;29;20505;-85
2022/08/27 12:56:51;;;;;;;4.05;1.88;;;30.80;49.60;;;;;;4864229;29;20516;-85
2022/08/27 12:59:39;;;;;;;6.00;1.67;;;30.90;51.70;;;;;;4863649;29;20057;-84
2022/08/27 13:02:43;;;;;;;5.65;1.35;;;30.80;48.50;;;;;;4864401;29;20049;-85
2022/08/27 13:05:11;;;;;;;3.20;1.15;;;30.80;50.60;;;;;;4865821;29;20056;-86
2022/08/27 13:07:42;;;;;;;5.20;1.60;;;30.90;51.90;;;;;;4864578;29;20402;-87
2022/08/27 13:10:12;;;;;;;7.80;1.88;;;30.90;51.50;;;;;;4866384;29;20040;-86
2022/08/27 13:12:42;;;;;;;5.07;1.60;;;30.90;51.20;;;;;;4866635;29;20052;-86
2022/08/27 13:15:12;;;;;;;6.45;1.35;;;31.00;51.40;;;;;;4893464;29;20076;-85
2022/08/27 13:17:44;;;;;;;7.82;1.60;;;30.90;51.00;;;;;;4867694;29;20490;-86
2022/08/27 13:20:21;;;;;;;7.00;1.95;;;30.90;48.80;;;;;;4866089;29;20072;-85
2022/08/27 13:22:49;;;;;;;6.15;1.58;;;30.90;50.00;;;;;;4865321;29;20051;-86
2022/08/27 13:25:32;;;;;;;5.97;1.92;;;30.90;49.40;;;;;;4859709;29;20065;-87
2022/08/27 13:28:06;;;;;;;5.47;1.38;;;30.90;50.50;;;;;;4864428;29;20057;-85
2022/08/27 13:30:40;;;;;;;8.70;1.83;;;30.90;50.40;;;;;;4862577;29;20517;-86